createdAt,value
2023-02-14T10:56:48.245Z,10.40
2023-02-14T10:59:23.511Z,12.50
2023-02-14T11:01:54.411Z,15.50
2023-02-14T11:04:25.377Z,15.40
2023-02-14T11:06:55.186Z,15.40
2023-02-14T11:09:23.853Z,16.90
2023-02-14T11:11:56.730Z,15.80
2023-02-14T11:14:32.681Z,15.40
2023-02-14T11:17:20.486Z,9.30
2023-02-14T11:20:02.696Z,11.80
2023-02-14T11:22:33.289Z,16.10
2023-02-14T11:25:26.563Z,17.00
2023-02-14T11:28:02.061Z,15.00
2023-02-14T11:30:35.373Z,16.20
2023-02-14T11:33:04.944Z,15.50
2023-02-14T11:35:37.570Z,16.20
2023-02-14T11:38:22.733Z,13.40
2023-02-14T11:40:56.420Z,11.50
2023-02-14T11:43:34.334Z,14.00
2023-02-14T11:46:21.422Z,14.40
2023-02-14T11:49:06.999Z,10.60
2023-02-14T11:51:42.125Z,11.60
2023-02-14T11:54:23.324Z,16.60
2023-02-14T11:57:02.125Z,13.30
2023-02-14T11:59:46.768Z,12.10
2023-02-14T12:02:44.375Z,12.00
2023-02-14T12:05:18.787Z,10.20
2023-02-14T12:07:51.721Z,12.60
2023-02-14T12:10:31.342Z,11.60
2023-02-14T12:13:22.042Z,11.10
2023-02-14T12:15:54.237Z,11.60
2023-02-14T12:18:33.246Z,12.70
2023-02-14T12:21:13.155Z,9.60
2023-02-14T12:23:42.301Z,8.40
2023-02-14T12:26:25.570Z,11.80
2023-02-14T12:29:14.387Z,10.90
2023-02-14T12:31:48.576Z,13.00
2023-02-14T12:34:19.525Z,11.60
2023-02-14T12:37:25.179Z,11.60
2023-02-14T12:40:22.534Z,11.30
2023-02-14T12:43:21.143Z,17.60
2023-02-14T12:46:16.192Z,12.80
2023-02-14T12:49:04.538Z,14.10
2023-02-14T12:51:58.843Z,15.10
2023-02-14T12:54:55.695Z,10.90
2023-02-14T12:57:39.193Z,13.20
2023-02-14T13:00:10.172Z,9.70
2023-02-14T13:03:03.664Z,11.90
2023-02-14T13:06:00.229Z,14.30
2023-02-14T13:08:31.920Z,13.20
2023-02-14T13:11:15.634Z,12.10
2023-02-14T13:13:49.699Z,10.40
2023-02-14T13:16:38.373Z,9.20
2023-02-14T13:19:14.219Z,6.00
2023-02-14T13:21:44.531Z,10.10
2023-02-14T13:24:22.378Z,11.50
2023-02-14T13:26:55.585Z,11.40
2023-02-14T13:29:28.290Z,10.10
2023-02-14T13:32:01.372Z,11.00
2023-02-14T13:34:41.876Z,10.30
2023-02-14T13:37:13.623Z,10.20
2023-02-14T13:40:04.509Z,12.80
2023-02-14T13:42:48.028Z,15.00
2023-02-14T13:45:37.217Z,14.60
2023-02-14T13:48:15.949Z,14.90
2023-02-14T13:50:56.436Z,10.80
2023-02-14T13:53:37.500Z,14.10
2023-02-14T13:56:12.413Z,16.50
2023-02-14T13:58:54.285Z,16.80
2023-02-14T14:01:31.922Z,14.70
2023-02-14T14:04:25.313Z,19.00
2023-02-14T14:07:14.128Z,14.80
2023-02-14T14:09:43.785Z,15.20
2023-02-14T14:12:27.341Z,18.30
2023-02-14T14:15:08.306Z,17.10
2023-02-14T14:17:44.590Z,17.60
2023-02-14T14:22:58.742Z,15.90
2023-02-14T14:25:41.894Z,19.90
2023-02-14T14:28:19.745Z,20.40
2023-02-14T14:30:48.814Z,18.90
2023-02-14T14:33:34.974Z,20.80
2023-02-14T14:36:08.184Z,20.80
2023-02-14T14:38:51.126Z,21.50
2023-02-14T14:41:20.287Z,23.60
2023-02-14T14:43:48.578Z,23.20
2023-02-14T14:46:17.507Z,16.10
2023-02-14T14:48:50.249Z,22.80
2023-02-14T14:51:27.271Z,23.80
2023-02-14T14:54:06.087Z,18.00
2023-02-14T14:56:56.292Z,21.30
2023-02-14T14:59:36.111Z,22.90
2023-02-14T15:02:30.102Z,22.10
2023-02-14T15:05:10.586Z,22.60
2023-02-14T15:07:39.008Z,24.80
2023-02-14T15:10:29.176Z,25.20
2023-02-14T15:13:17.996Z,26.00
2023-02-14T15:15:51.608Z,19.60
2023-02-14T15:18:21.529Z,19.30
2023-02-14T15:20:51.856Z,23.20
2023-02-14T15:23:24.348Z,22.70
2023-02-14T15:25:52.699Z,19.50
2023-02-14T15:28:35.524Z,21.90
2023-02-14T15:31:07.163Z,19.70
2023-02-14T15:33:36.227Z,18.00
2023-02-14T15:36:17.199Z,16.90
2023-02-14T15:38:46.538Z,9.40
2023-02-14T15:41:17.166Z,13.70
2023-02-14T15:43:53.003Z,14.60
2023-02-14T15:46:26.526Z,11.10
2023-02-14T15:48:58.618Z,9.60
2023-02-14T15:51:32.365Z,13.10
2023-02-14T15:54:04.264Z,9.50
2023-02-14T15:56:46.080Z,11.30
2023-02-14T15:59:21.585Z,12.20
2023-02-14T16:02:03.838Z,8.40
2023-02-14T16:04:35.893Z,10.70
2023-02-14T16:07:13.876Z,9.40
2023-02-14T16:09:42.768Z,12.30
2023-02-14T16:12:35.944Z,9.50
2023-02-14T16:15:10.868Z,9.10
2023-02-14T16:17:40.306Z,8.80
2023-02-14T16:20:29.814Z,7.50
2023-02-14T16:23:16.687Z,8.30
2023-02-14T16:25:46.879Z,9.50
2023-02-14T16:28:16.003Z,8.80
2023-02-14T16:30:46.982Z,8.30
2023-02-14T16:33:25.501Z,7.40
2023-02-14T16:35:54.760Z,8.10
2023-02-14T16:38:23.326Z,7.60
2023-02-14T16:40:54.699Z,8.30
2023-02-14T16:43:23.059Z,8.50
2023-02-14T16:45:51.310Z,7.00
2023-02-14T16:48:20.015Z,7.70
2023-02-14T16:50:51.889Z,7.00
2023-02-14T16:53:27.534Z,6.60
2023-02-14T16:55:57.768Z,6.20
2023-02-14T16:58:35.670Z,7.40
2023-02-14T17:01:04.111Z,7.10
2023-02-14T17:03:32.680Z,7.30
2023-02-14T17:06:02.394Z,7.10
2023-02-14T17:08:31.576Z,7.10
2023-02-14T17:11:02.314Z,7.80
2023-02-14T17:13:34.853Z,7.50
2023-02-14T17:16:08.598Z,6.00
2023-02-14T17:18:38.375Z,7.00
2023-02-14T17:21:07.064Z,6.40
2023-02-14T17:23:35.698Z,6.80
2023-02-14T17:26:06.583Z,8.30
2023-02-14T17:28:35.227Z,7.00
2023-02-14T17:31:04.332Z,7.60
2023-02-14T17:33:33.528Z,8.10
2023-02-14T17:36:19.686Z,7.50
2023-02-14T17:38:53.590Z,6.10
2023-02-14T17:41:26.362Z,8.40
2023-02-14T17:44:00.254Z,7.50
2023-02-14T17:46:30.707Z,7.20
2023-02-14T17:49:02.823Z,6.50
2023-02-14T17:51:31.051Z,7.00
2023-02-14T17:53:59.299Z,8.20
2023-02-14T17:56:27.543Z,7.50
2023-02-14T17:58:58.271Z,7.20
2023-02-14T18:01:34.656Z,7.60
2023-02-14T18:04:02.950Z,8.10
2023-02-14T18:06:32.044Z,7.50
2023-02-14T18:09:00.421Z,8.10
2023-02-14T18:11:31.239Z,8.20
2023-02-14T18:14:00.109Z,6.40
2023-02-14T18:16:32.965Z,7.50
2023-02-14T18:19:03.846Z,8.80
2023-02-14T18:21:36.477Z,5.20
2023-02-14T18:24:07.359Z,7.10
2023-02-14T18:26:43.599Z,5.80
2023-02-14T18:29:16.095Z,6.90
2023-02-14T18:31:47.449Z,7.20
2023-02-14T18:34:25.287Z,7.90
2023-02-14T18:36:54.584Z,7.20
2023-02-14T18:39:23.653Z,7.20
2023-02-14T18:41:56.958Z,6.00
2023-02-14T18:44:27.482Z,7.70
2023-02-14T18:46:57.684Z,6.50
2023-02-14T18:49:28.800Z,6.90
2023-02-14T18:51:59.215Z,5.40
2023-02-14T18:54:27.373Z,5.10
2023-02-14T18:56:55.658Z,6.20
2023-02-14T18:59:23.877Z,6.10
2023-02-14T19:01:52.266Z,6.40
2023-02-14T19:04:20.502Z,5.90
2023-02-14T19:06:49.486Z,4.40
2023-02-14T19:09:18.928Z,5.80
2023-02-14T19:11:47.148Z,5.20
2023-02-14T19:14:15.344Z,5.30
2023-02-14T19:16:51.271Z,4.40
2023-02-14T19:19:20.320Z,4.10
2023-02-14T19:21:48.713Z,5.10
2023-02-14T19:24:18.111Z,6.00
2023-02-14T19:26:47.019Z,6.00
2023-02-14T19:29:17.968Z,5.50
2023-02-14T19:31:48.735Z,5.20
2023-02-14T19:34:20.139Z,4.30
2023-02-14T19:36:49.611Z,3.90
2023-02-14T19:39:19.346Z,4.20
2023-02-14T19:41:49.273Z,4.80
2023-02-14T19:44:20.004Z,5.60
2023-02-14T19:46:48.688Z,4.50
2023-02-14T19:49:20.454Z,5.50
2023-02-14T19:51:51.459Z,4.40
2023-02-14T19:54:22.506Z,4.50
2023-02-14T19:56:50.780Z,3.60
2023-02-14T19:59:23.381Z,5.00
2023-02-14T20:01:53.974Z,5.80
2023-02-14T20:04:28.053Z,5.10
2023-02-14T20:06:57.184Z,4.90
2023-02-14T20:09:26.543Z,5.40
2023-02-14T20:11:57.003Z,5.30
2023-02-14T20:14:50.490Z,5.70
2023-02-14T20:17:20.776Z,4.20
2023-02-14T20:19:49.409Z,5.30
2023-02-14T20:22:17.667Z,4.50
2023-02-14T20:24:46.151Z,6.40
2023-02-14T20:27:14.485Z,4.00
2023-02-14T20:29:45.939Z,5.40
2023-02-14T20:32:16.561Z,4.30
2023-02-14T20:34:45.307Z,4.90
2023-02-14T20:37:13.984Z,5.50
2023-02-14T20:39:42.184Z,6.70
2023-02-14T20:42:10.617Z,6.60
2023-02-14T20:44:38.856Z,5.20
2023-02-14T20:47:07.612Z,7.30
2023-02-14T20:49:37.786Z,6.70
2023-02-14T20:52:06.364Z,6.90
2023-02-14T20:54:34.700Z,4.90
2023-02-14T20:57:04.435Z,7.30
2023-02-14T20:59:33.888Z,6.00
2023-02-14T21:02:02.107Z,6.30
2023-02-14T21:04:30.633Z,6.30
2023-02-14T21:07:00.397Z,5.30
2023-02-14T21:09:28.661Z,6.30
2023-02-14T21:11:58.462Z,6.70
2023-02-14T21:14:27.129Z,6.70
2023-02-14T21:16:55.386Z,7.10
2023-02-14T21:19:23.592Z,4.40
2023-02-14T21:21:51.752Z,5.40
2023-02-14T21:24:20.080Z,6.00
2023-02-14T21:26:48.284Z,6.20
2023-02-14T21:29:16.713Z,7.20
2023-02-14T21:31:45.034Z,6.70
2023-02-14T21:34:15.383Z,6.80
2023-02-14T21:36:43.867Z,6.70
2023-02-14T21:39:12.128Z,6.30
2023-02-14T21:41:40.398Z,6.60
2023-02-14T21:44:08.639Z,8.20
2023-02-14T21:46:43.475Z,6.30
2023-02-14T21:49:31.634Z,6.80
2023-02-14T21:52:02.118Z,7.40
2023-02-14T21:54:30.446Z,7.70
2023-02-14T21:56:58.696Z,6.00
2023-02-14T21:59:28.088Z,8.10
2023-02-14T22:01:56.543Z,6.40
2023-02-14T22:04:25.294Z,4.80
2023-02-14T22:06:53.585Z,7.50
2023-02-14T22:09:22.093Z,6.40
2023-02-14T22:11:50.296Z,6.00
2023-02-14T22:14:19.826Z,7.70
2023-02-14T22:16:48.495Z,7.10
2023-02-14T22:19:17.143Z,6.90
2023-02-14T22:21:45.431Z,7.30
2023-02-14T22:24:15.142Z,7.70
2023-02-14T22:26:43.480Z,7.40
2023-02-14T22:29:14.252Z,5.70
2023-02-14T22:31:43.864Z,6.70
2023-02-14T22:34:14.747Z,7.30
2023-02-14T22:36:43.021Z,5.50
2023-02-14T22:39:16.562Z,6.90
2023-02-14T22:41:47.912Z,6.30
2023-02-14T22:44:16.160Z,6.00
2023-02-14T22:46:44.608Z,7.80
2023-02-14T22:49:13.122Z,7.90
2023-02-14T22:51:42.632Z,8.30
2023-02-14T22:54:13.763Z,5.60
2023-02-14T22:56:47.077Z,7.50
2023-02-14T22:59:24.492Z,7.50
2023-02-14T23:01:53.910Z,7.00
2023-02-14T23:04:27.324Z,5.30
2023-02-14T23:06:56.327Z,5.20
2023-02-14T23:09:25.153Z,8.10
2023-02-14T23:11:53.471Z,7.70
2023-02-14T23:14:40.518Z,7.80
2023-02-14T23:17:15.071Z,6.50
2023-02-14T23:20:02.752Z,6.30
2023-02-14T23:22:34.020Z,7.00
2023-02-14T23:25:05.175Z,5.50
2023-02-14T23:27:45.969Z,5.20
2023-02-14T23:30:17.398Z,7.20
2023-02-14T23:32:45.788Z,9.50
2023-02-14T23:35:14.404Z,6.90
2023-02-14T23:37:42.616Z,7.60
2023-02-14T23:40:13.709Z,6.70
2023-02-14T23:42:41.901Z,9.00
2023-02-14T23:45:28.704Z,8.50
2023-02-14T23:48:01.933Z,7.80
2023-02-14T23:50:30.376Z,6.80
2023-02-14T23:52:59.442Z,7.60
2023-02-14T23:55:27.672Z,7.40
2023-02-14T23:57:55.949Z,9.20
